Time;durP1;ratioP1;P1;durP2;ratioP2;P2;SDS_P1;SDS_P2;PMS_P1;PMS_P2;Temp;Humidity;BMP_temperature;BMP_pressure;BME280_temperature;BME280_humidity;BME280_pressure;Samples;Min_cycle;Max_cycle;Signal;HPM_P1;HPM_P2
2022/03/04 00:01:50;;;;;;;59.93;36.60;;;;;;;4.73;52.12;94215.88;5065291;28;20453;-76
2022/03/04 00:04:16;;;;;;;58.47;34.07;;;;;;;4.54;52.45;94218.88;5065213;28;20254;-75
2022/03/04 00:06:41;;;;;;;51.03;34.23;;;;;;;4.58;52.43;94220.16;5062752;28;20193;-75
2022/03/04 00:09:07;;;;;;;55.37;36.60;;;;;;;4.68;52.79;94212.97;5064872;28;20185;-75
2022/03/04 00:11:32;;;;;;;51.40;33.73;;;;;;;4.66;52.31;94218.31;5062618;28;20224;-75
2022/03/04 00:13:58;;;;;;;50.27;33.70;;;;;;;4.66;52.09;94220.13;5057043;28;20565;-75
2022/03/04 00:16:24;;;;;;;51.50;34.17;;;;;;;4.68;51.81;94216.38;5059742;28;20174;-75
2022/03/04 00:19:06;;;;;;;47.80;32.07;;;;;;;4.50;52.48;94214.03;5065092;28;20158;-76
2022/03/04 00:21:42;;;;;;;46.40;30.33;;;;;;;4.97;50.92;94217.56;5057072;28;20598;-75
2022/03/04 00:24:09;;;;;;;39.23;28.50;;;;;;;4.55;51.99;94212.72;5061106;28;20424;-75
2022/03/04 00:26:36;;;;;;;39.93;26.47;;;;;;;4.70;51.26;94205.84;5055613;28;20434;-75
2022/03/04 00:29:01;;;;;;;40.67;26.37;;;;;;;4.66;51.29;94212.34;5058588;28;20409;-75
2022/03/04 00:31:28;;;;;;;43.87;28.20;;;;;;;4.71;51.71;94209.25;5058970;28;20427;-75
2022/03/04 00:33:53;;;;;;;48.13;31.33;;;;;;;4.80;51.38;94209.06;5063949;28;20205;-75
2022/03/04 00:36:23;;;;;;;37.77;29.00;;;;;;;4.64;51.54;94203.94;5057643;28;20457;-75
2022/03/04 00:38:50;;;;;;;41.13;27.17;;;;;;;5.06;50.80;94197.56;5059698;28;20173;-75
2022/03/04 00:41:21;;;;;;;35.27;27.00;;;;;;;4.85;51.46;94200.75;5064156;28;20452;-75
2022/03/04 00:43:47;;;;;;;38.10;27.33;;;;;;;4.63;51.93;94208.31;5053581;28;20428;-75
2022/03/04 00:46:14;;;;;;;32.33;25.20;;;;;;;4.59;51.93;94206.22;5063055;28;20433;-75
2022/03/04 00:48:43;;;;;;;39.63;26.40;;;;;;;4.69;52.19;94202.44;5061815;28;20416;-75
2022/03/04 00:51:10;;;;;;;33.90;25.33;;;;;;;4.74;52.04;94201.94;5064549;28;20453;-75
2022/03/04 00:53:36;;;;;;;33.23;24.73;;;;;;;4.68;52.13;94202.63;5060527;28;20456;-75
2022/03/04 00:56:02;;;;;;;32.40;24.87;;;;;;;4.55;52.18;94197.97;5059038;28;20521;-75
2022/03/04 00:58:28;;;;;;;36.17;25.17;;;;;;;4.55;52.56;94199.75;5058765;28;20405;-75
2022/03/04 01:00:53;;;;;;;33.63;24.63;;;;;;;4.63;52.36;94194.53;5055729;28;20448;-75
2022/03/04 01:03:19;;;;;;;32.03;25.50;;;;;;;5.06;51.37;94192.38;5064593;28;20182;-75
2022/03/04 01:05:44;;;;;;;32.47;24.33;;;;;;;4.83;51.59;94193.16;5064604;28;20205;-75
2022/03/04 01:08:10;;;;;;;33.10;23.27;;;;;;;4.84;51.98;94184.41;5064889;28;20419;-75
2022/03/04 01:10:36;;;;;;;35.90;25.03;;;;;;;4.61;52.17;94193.91;5061606;28;20221;-74
2022/03/04 01:13:02;;;;;;;32.10;23.33;;;;;;;4.24;53.41;94182.38;5044740;28;20257;-75
2022/03/04 01:15:27;;;;;;;33.77;25.60;;;;;;;4.49;52.52;94185.69;5058561;28;20416;-74
2022/03/04 01:17:53;;;;;;;30.60;22.40;;;;;;;4.48;52.31;94186.69;5064570;28;20424;-75
2022/03/04 01:20:19;;;;;;;31.40;23.23;;;;;;;4.65;52.30;94177.06;5051503;28;20178;-75
2022/03/04 01:22:45;;;;;;;33.47;23.60;;;;;;;4.59;52.68;94173.34;5058289;28;20214;-74
2022/03/04 01:25:11;;;;;;;30.43;22.30;;;;;;;5.23;51.15;94175.72;5055487;28;20429;-75
2022/03/04 01:27:36;;;;;;;31.07;23.10;;;;;;;5.27;51.16;94171.81;5046452;28;20198;-75
2022/03/04 01:30:04;;;;;;;28.23;19.40;;;;;;;4.84;51.85;94165.47;5044351;28;20461;-74
2022/03/04 01:32:30;;;;;;;31.33;22.80;;;;;;;4.47;52.92;94174.69;5062314;28;20178;-74
2022/03/04 01:34:55;;;;;;;30.53;20.33;;;;;;;4.44;53.57;94173.25;5064373;28;20515;-74
2022/03/04 01:37:21;;;;;;;30.33;19.73;;;;;;;4.63;51.92;94163.44;5050394;28;20170;-74
2022/03/04 01:39:47;;;;;;;25.40;17.57;;;;;;;4.03;54.10;94163.03;5064493;28;20174;-75
2022/03/04 01:42:12;;;;;;;27.23;20.20;;;;;;;4.19;53.82;94163.94;5064635;28;20464;-75
2022/03/04 01:44:37;;;;;;;28.97;19.43;;;;;;;4.64;52.83;94163.28;5064335;28;20174;-75
2022/03/04 01:47:03;;;;;;;25.37;17.30;;;;;;;4.59;52.93;94169.94;5064205;28;20174;-74
2022/03/04 01:49:29;;;;;;;27.73;20.30;;;;;;;4.16;53.58;94161.72;5063168;28;20183;-74
2022/03/04 01:51:54;;;;;;;29.50;20.50;;;;;;;4.23;53.74;94160.88;5064569;28;20427;-75
2022/03/04 01:54:20;;;;;;;27.97;22.73;;;;;;;4.60;52.68;94156.81;5064986;28;20175;-75
2022/03/04 01:56:45;;;;;;;29.77;24.50;;;;;;;4.04;54.29;94156.88;5068283;28;20171;-75
2022/03/04 01:59:11;;;;;;;26.20;20.17;;;;;;;4.22;53.68;94155.84;5068154;28;20547;-75
2022/03/04 02:01:37;;;;;;;37.27;23.27;;;;;;;4.24;53.42;94148.72;5068071;28;20301;-74
2022/03/04 02:04:02;;;;;;;33.13;26.20;;;;;;;4.26;53.16;94144.19;5067921;28;20210;-74
2022/03/04 02:06:28;;;;;;;34.00;25.13;;;;;;;3.91;54.37;94156.59;5056861;28;20306;-75
2022/03/04 02:08:54;;;;;;;32.80;25.93;;;;;;;4.17;54.38;94150.38;5066605;28;20244;-74
2022/03/04 02:11:19;;;;;;;37.67;25.60;;;;;;;4.55;53.26;94147.94;5058354;28;20203;-75
2022/03/04 02:13:45;;;;;;;42.17;28.40;;;;;;;4.25;53.81;94148.56;5050526;28;20191;-75
2022/03/04 02:16:27;;;;;;;39.17;28.87;;;;;;;4.29;54.00;94146.44;5052524;28;20244;-75
2022/03/04 02:18:53;;;;;;;42.93;28.17;;;;;;;4.31;54.08;94152.25;5065048;28;20246;-75
2022/03/04 02:21:22;;;;;;;45.07;29.97;;;;;;;4.80;53.21;94146.84;5056581;28;20572;-75
2022/03/04 02:23:48;;;;;;;42.27;29.17;;;;;;;4.35;53.51;94156.13;5067460;28;20413;-75
2022/03/04 02:26:13;;;;;;;42.70;29.07;;;;;;;4.26;54.28;94144.19;5048366;28;20451;-75
2022/03/04 02:28:39;;;;;;;44.93;29.80;;;;;;;4.27;54.55;94145.81;5053157;28;20198;-75
2022/03/04 02:31:04;;;;;;;38.97;27.00;;;;;;;4.26;54.69;94149.38;5054948;28;20630;-74
2022/03/04 02:33:30;;;;;;;41.00;28.07;;;;;;;4.60;53.28;94136.09;5067292;28;20600;-75
2022/03/04 02:35:56;;;;;;;47.33;31.07;;;;;;;4.48;54.11;94148.63;5044383;28;20190;-75
2022/03/04 02:38:22;;;;;;;41.73;30.40;;;;;;;4.33;54.30;94139.97;5066295;28;20425;-74
2022/03/04 02:40:47;;;;;;;34.67;27.00;;;;;;;4.47;54.06;94147.00;5065795;28;20185;-75
2022/03/04 02:43:13;;;;;;;34.90;27.90;;;;;;;4.42;54.24;94141.53;5063389;28;20175;-74
2022/03/04 02:45:38;;;;;;;36.40;27.80;;;;;;;4.29;54.45;94142.06;5050734;28;20208;-75
2022/03/04 02:48:04;;;;;;;38.40;29.00;;;;;;;4.34;54.38;94140.75;5062894;28;20178;-75
2022/03/04 02:50:29;;;;;;;35.40;26.87;;;;;;;4.43;54.30;94135.38;5066925;28;20186;-75
2022/03/04 02:52:56;;;;;;;39.40;27.83;;;;;;;4.21;54.57;94136.09;5067001;28;20175;-75
2022/03/04 02:55:21;;;;;;;40.53;27.50;;;;;;;4.25;54.84;94142.56;5056882;28;20199;-74
2022/03/04 02:57:47;;;;;;;38.50;28.20;;;;;;;4.63;53.53;94137.53;5067023;28;20413;-75
2022/03/04 03:00:14;;;;;;;32.83;25.80;;;;;;;4.86;52.67;94130.59;5066598;28;20513;-75
2022/03/04 03:02:41;;;;;;;33.60;24.23;;;;;;;4.48;53.54;94133.09;5066883;28;20209;-75
2022/03/04 03:05:07;;;;;;;42.03;28.10;;;;;;;4.38;54.20;94137.69;5066368;28;20819;-76
2022/03/04 03:07:32;;;;;;;37.83;29.10;;;;;;;4.26;54.28;94139.81;5060043;28;20445;-75
2022/03/04 03:09:58;;;;;;;34.73;27.67;;;;;;;4.46;53.96;94134.25;5060400;28;20440;-75
2022/03/04 03:12:23;;;;;;;40.00;26.53;;;;;;;4.34;53.86;94143.34;5066451;28;20292;-75
2022/03/04 03:14:49;;;;;;;35.70;27.93;;;;;;;4.15;54.67;94134.19;5066918;28;20182;-75
2022/03/04 03:17:14;;;;;;;37.90;27.60;;;;;;;4.19;54.86;94143.22;5066779;28;20186;-75
2022/03/04 03:19:40;;;;;;;48.20;30.70;;;;;;;4.06;55.61;94139.41;5054542;28;20203;-75
2022/03/04 03:22:05;;;;;;;38.63;23.43;;;;;;;4.42;54.15;94136.34;5060192;28;20203;-75
2022/03/04 03:24:31;;;;;;;34.87;26.50;;;;;;;3.68;55.87;94136.59;5056378;28;20221;-75
2022/03/04 03:26:57;;;;;;;42.70;28.20;;;;;;;3.41;56.40;94142.09;5064067;28;20179;-75
2022/03/04 03:29:22;;;;;;;41.17;27.50;;;;;;;3.62;56.31;94147.56;5054915;28;20201;-75
2022/03/04 03:31:48;;;;;;;37.70;26.93;;;;;;;3.97;55.51;94145.56;5065448;28;20182;-75
2022/03/04 03:34:14;;;;;;;46.33;27.30;;;;;;;3.75;55.56;94154.03;5066880;28;20186;-75
2022/03/04 03:36:39;;;;;;;40.23;28.30;;;;;;;3.70;56.31;94147.59;5066723;28;20170;-74
2022/03/04 03:39:05;;;;;;;42.90;29.00;;;;;;;3.87;55.56;94152.72;5066326;28;20481;-75
2022/03/04 03:41:30;;;;;;;43.57;30.70;;;;;;;4.05;54.94;94147.34;5066101;28;20190;-74
2022/03/04 03:43:56;;;;;;;47.67;31.43;;;;;;;3.76;55.88;94153.09;5061672;28;20179;-75
2022/03/04 03:46:21;;;;;;;49.93;31.60;;;;;;;3.46;57.12;94151.00;5064922;28;20250;-74
2022/03/04 03:48:47;;;;;;;38.47;29.60;;;;;;;3.45;56.87;94156.31;5066197;28;20201;-74
2022/03/04 03:51:12;;;;;;;46.50;31.00;;;;;;;3.37;57.47;94153.75;5061500;28;20175;-74
2022/03/04 03:53:38;;;;;;;48.27;34.50;;;;;;;3.56;57.40;94155.19;5063230;28;20571;-75
2022/03/04 03:56:03;;;;;;;53.20;37.77;;;;;;;3.67;56.38;94152.28;5055172;28;20179;-74
2022/03/04 03:58:29;;;;;;;57.77;38.60;;;;;;;3.71;56.24;94154.34;5052116;28;20180;-75
2022/03/04 04:00:55;;;;;;;59.43;42.07;;;;;;;3.28;57.86;94150.34;5066090;28;20170;-75
2022/03/04 04:03:20;;;;;;;56.37;40.43;;;;;;;3.70;56.24;94155.34;5065630;28;20170;-75
2022/03/04 04:05:46;;;;;;;63.50;40.17;;;;;;;3.60;57.22;94152.09;5065818;28;20746;-75
2022/03/04 04:08:11;;;;;;;67.60;42.97;;;;;;;3.43;56.93;94151.31;5065830;28;20179;-74
2022/03/04 04:10:37;;;;;;;56.90;39.33;;;;;;;3.58;56.69;94153.25;5045609;28;20219;-75
2022/03/04 04:13:02;;;;;;;64.03;39.30;;;;;;;3.49;57.08;94158.44;5048559;28;20193;-75
2022/03/04 04:15:28;;;;;;;63.77;40.10;;;;;;;3.51;56.34;94155.69;5064045;28;20255;-75
2022/03/04 04:17:54;;;;;;;62.33;38.23;;;;;;;3.40;56.84;94151.66;5063598;28;20178;-75
2022/03/04 04:20:19;;;;;;;56.63;37.77;;;;;;;3.56;56.41;94165.53;5048262;28;20236;-75
2022/03/04 04:22:44;;;;;;;62.30;43.17;;;;;;;3.78;55.70;94159.69;5055222;28;20449;-75
2022/03/04 04:25:10;;;;;;;58.87;40.90;;;;;;;3.62;56.34;94157.91;5065473;28;20285;-75
2022/03/04 04:27:36;;;;;;;54.57;39.80;;;;;;;3.71;56.11;94159.53;5057184;28;20179;-75
2022/03/04 04:30:02;;;;;;;67.30;44.47;;;;;;;3.37;57.08;94164.09;5059708;28;20185;-74
2022/03/04 04:32:28;;;;;;;56.10;42.03;;;;;;;3.26;57.46;94162.63;5053469;28;20827;-75
2022/03/04 04:34:53;;;;;;;61.47;42.60;;;;;;;3.35;57.49;94169.44;5065657;28;20417;-75
2022/03/04 04:37:18;;;;;;;56.93;40.30;;;;;;;3.70;56.27;94170.06;5059143;28;20211;-75
2022/03/04 04:39:44;;;;;;;59.70;41.33;;;;;;;3.42;57.16;94172.97;5044945;28;20217;-75
2022/03/04 04:42:09;;;;;;;57.83;38.57;;;;;;;3.41;57.21;94178.31;5064817;28;20194;-75
2022/03/04 04:44:35;;;;;;;58.40;40.90;;;;;;;3.42;57.29;94174.78;5061463;28;20179;-74
2022/03/04 04:47:00;;;;;;;52.93;38.20;;;;;;;3.32;57.36;94180.09;5065053;28;20538;-75
2022/03/04 04:49:26;;;;;;;49.50;37.47;;;;;;;3.31;57.45;94186.25;5064964;28;20238;-75
2022/03/04 04:51:52;;;;;;;55.27;35.80;;;;;;;3.40;56.75;94179.31;5053123;28;20171;-73
2022/03/04 04:54:18;;;;;;;43.80;30.70;;;;;;;3.38;56.41;94181.22;5055278;28;20506;-75
2022/03/04 04:56:43;;;;;;;52.70;33.00;;;;;;;3.47;55.96;94180.25;5060961;28;20477;-74
2022/03/04 04:59:10;;;;;;;46.83;35.00;;;;;;;3.57;55.91;94191.25;5065002;28;20236;-75
2022/03/04 05:01:36;;;;;;;47.97;36.50;;;;;;;3.45;56.05;94187.38;5063214;28;20553;-75
2022/03/04 05:04:02;;;;;;;53.70;35.83;;;;;;;3.44;56.77;94190.94;5050452;28;20518;-75
2022/03/04 05:06:27;;;;;;;58.60;39.20;;;;;;;3.58;56.06;94190.25;5052459;28;20277;-75
2022/03/04 05:08:53;;;;;;;60.13;34.30;;;;;;;3.28;56.53;94192.53;5064675;28;20642;-75
2022/03/04 05:11:18;;;;;;;50.83;35.53;;;;;;;3.44;55.50;94190.94;5064167;28;20298;-75
2022/03/04 05:13:44;;;;;;;44.87;32.77;;;;;;;3.64;55.43;94178.47;5050608;28;20190;-75
2022/03/04 05:16:09;;;;;;;42.20;29.87;;;;;;;3.85;54.56;94178.78;5062808;28;20185;-77
2022/03/04 05:18:34;;;;;;;53.17;33.10;;;;;;;3.51;55.36;94176.38;5059807;28;20634;-75
2022/03/04 05:21:02;;;;;;;48.93;30.70;;;;;;;3.40;55.15;94181.88;5044412;28;20221;-75
2022/03/04 05:26:11;;;;;;;47.53;31.50;;;;;;;3.54;55.51;94176.03;5064249;28;20439;-75
2022/03/04 05:28:37;;;;;;;50.87;34.70;;;;;;;3.29;55.79;94178.63;5052916;28;20413;-75
2022/03/04 05:31:02;;;;;;;45.70;32.50;;;;;;;3.41;56.35;94175.72;5055494;28;20183;-75
2022/03/04 05:33:28;;;;;;;49.77;33.63;;;;;;;3.58;55.80;94187.69;5054716;28;20177;-74
2022/03/04 05:35:53;;;;;;;54.60;37.83;;;;;;;3.56;56.18;94191.41;5068250;28;20626;-76
2022/03/04 05:38:18;;;;;;;54.70;36.70;;;;;;;3.63;56.52;94185.41;5054272;28;20163;-75
2022/03/04 05:40:44;;;;;;;54.80;38.47;;;;;;;3.75;55.58;94187.66;5061507;28;20265;-74
2022/03/04 05:43:09;;;;;;;57.30;41.03;;;;;;;3.60;56.24;94185.72;5065009;28;20183;-75
2022/03/04 05:45:35;;;;;;;55.53;39.10;;;;;;;3.66;55.34;94190.28;5067916;28;20182;-74
2022/03/04 05:48:00;;;;;;;48.43;37.07;;;;;;;3.85;55.77;94188.28;5067603;28;20174;-75
2022/03/04 05:50:26;;;;;;;60.07;39.53;;;;;;;3.83;55.81;94195.41;5063143;28;20197;-75
2022/03/04 05:52:51;;;;;;;56.20;40.00;;;;;;;3.95;55.63;94196.72;5066987;28;20261;-75
2022/03/04 05:55:17;;;;;;;57.23;39.67;;;;;;;4.14;55.50;94202.50;5066469;28;20182;-75
2022/03/04 05:57:42;;;;;;;64.43;42.23;;;;;;;4.16;55.46;94197.97;5066438;28;20208;-75
2022/03/04 06:00:08;;;;;;;56.93;40.90;;;;;;;4.20;55.46;94204.41;5060416;28;20527;-75
2022/03/04 06:02:34;;;;;;;63.30;43.20;;;;;;;4.37;55.03;94195.63;5063405;28;20195;-75
2022/03/04 06:04:59;;;;;;;61.73;42.43;;;;;;;4.52;54.31;94195.72;5047683;28;20428;-75
2022/03/04 06:07:25;;;;;;;60.73;43.03;;;;;;;4.89;53.13;94204.63;5063226;28;20562;-74
2022/03/04 06:09:50;;;;;;;58.90;39.37;;;;;;;4.72;53.62;94198.72;5067626;28;20179;-74
2022/03/04 06:12:16;;;;;;;55.50;39.27;;;;;;;4.81;53.45;94205.47;5067082;28;20262;-76
2022/03/04 06:14:41;;;;;;;57.87;39.80;;;;;;;4.93;53.20;94192.13;5067004;28;20238;-75
2022/03/04 06:17:07;;;;;;;53.77;38.80;;;;;;;5.12;53.11;94199.47;5067647;28;20185;-75
2022/03/04 06:19:33;;;;;;;56.73;39.03;;;;;;;5.26;53.19;94193.53;5053583;28;20167;-75
2022/03/04 06:21:58;;;;;;;51.83;40.43;;;;;;;5.41;52.23;94188.41;5056469;28;20206;-75
2022/03/04 06:24:24;;;;;;;59.93;42.90;;;;;;;5.57;52.27;94194.44;5067199;28;20499;-75
2022/03/04 06:26:49;;;;;;;57.67;41.97;;;;;;;5.77;51.76;94189.59;5056756;28;20262;-75
2022/03/04 06:29:15;;;;;;;53.03;40.13;;;;;;;5.62;51.77;94192.94;5048539;28;20171;-75
2022/03/04 06:31:41;;;;;;;59.27;39.37;;;;;;;5.64;52.18;94190.19;5057482;28;20186;-75
2022/03/04 06:34:06;;;;;;;51.20;39.10;;;;;;;5.91;51.43;94185.41;5066789;28;20412;-75
2022/03/04 06:36:32;;;;;;;53.73;40.87;;;;;;;5.96;50.52;94189.13;5067243;28;20175;-75
2022/03/04 06:38:57;;;;;;;53.30;36.27;;;;;;;5.97;50.44;94187.31;5041122;28;20513;-75
2022/03/04 06:41:23;;;;;;;54.10;38.80;;;;;;;5.97;50.64;94193.31;5066591;28;20198;-75
2022/03/04 06:43:48;;;;;;;59.93;40.80;;;;;;;5.96;50.38;94199.50;5057923;28;20233;-75
2022/03/04 06:46:15;;;;;;;65.40;46.07;;;;;;;5.30;51.61;94203.59;5060574;28;20195;-75
2022/03/04 06:48:40;;;;;;;69.90;46.87;;;;;;;4.59;52.84;94212.22;5047985;28;20171;-75
2022/03/04 06:51:06;;;;;;;59.30;41.60;;;;;;;4.24;54.14;94209.09;5066083;28;20511;-75
2022/03/04 06:53:31;;;;;;;69.80;45.60;;;;;;;4.70;53.65;94208.44;5066603;28;20198;-75
2022/03/04 06:55:57;;;;;;;67.57;43.70;;;;;;;5.04;52.19;94205.50;5066895;28;20179;-75
2022/03/04 06:58:22;;;;;;;74.27;44.60;;;;;;;4.94;52.50;94219.69;5057413;28;20183;-74
2022/03/04 07:00:48;;;;;;;72.17;45.30;;;;;;;4.32;54.07;94221.19;5063351;28;20181;-75
2022/03/04 07:03:13;;;;;;;48.60;32.17;;;;;;;3.81;55.93;94231.00;5065187;28;20190;-74
2022/03/04 07:05:39;;;;;;;72.93;45.93;;;;;;;4.55;53.79;94228.25;5052928;28;20270;-75
2022/03/04 07:08:07;;;;;;;64.80;43.80;;;;;;;4.65;53.66;94232.28;5061015;28;20500;-75
2022/03/04 07:10:34;;;;;;;77.37;46.57;;;;;;;4.91;53.15;94230.38;5060983;28;20179;-75
2022/03/04 07:13:00;;;;;;;87.23;47.77;;;;;;;5.46;51.74;94225.03;5066501;28;20413;-75
2022/03/04 07:15:26;;;;;;;72.60;50.93;;;;;;;5.25;51.54;94223.06;5066052;28;20921;-75
2022/03/04 07:17:52;;;;;;;71.33;48.40;;;;;;;5.87;50.86;94227.28;5032716;28;20405;-75
2022/03/04 07:20:17;;;;;;;62.77;45.27;;;;;;;5.95;50.40;94228.22;5044169;28;20669;-75
2022/03/04 07:22:43;;;;;;;69.87;48.97;;;;;;;5.04;52.04;94230.63;5034113;28;20253;-75
2022/03/04 07:25:11;;;;;;;75.63;46.20;;;;;;;5.12;52.80;94233.16;5046874;28;20180;-74
2022/03/04 07:27:37;;;;;;;68.23;45.30;;;;;;;5.66;51.36;94225.34;5031882;28;20187;-74
2022/03/04 07:30:05;;;;;;;72.03;45.77;;;;;;;6.30;49.74;94229.38;5057080;28;20429;-75
2022/03/04 07:32:32;;;;;;;66.43;46.33;;;;;;;6.55;49.01;94222.13;5059685;28;20445;-74
2022/03/04 07:34:58;;;;;;;59.10;40.10;;;;;;;6.09;48.36;94227.47;5046165;28;20406;-75
2022/03/04 07:37:23;;;;;;;62.27;47.03;;;;;;;6.29;49.42;94227.75;5059590;28;20449;-74
2022/03/04 07:39:49;;;;;;;71.23;45.60;;;;;;;6.27;49.90;94226.31;5056324;28;20404;-75
2022/03/04 07:42:14;;;;;;;78.13;45.97;;;;;;;6.81;48.26;94228.63;5065617;28;20195;-75
2022/03/04 07:44:40;;;;;;;78.27;52.80;;;;;;;7.36;47.71;94223.84;5057489;28;20233;-75
2022/03/04 07:47:06;;;;;;;80.30;45.97;;;;;;;6.50;48.96;94231.44;5049768;28;20210;-74
2022/03/04 07:49:32;;;;;;;67.70;46.77;;;;;;;6.42;49.13;94224.53;5054123;28;20249;-74
2022/03/04 07:51:57;;;;;;;58.47;42.33;;;;;;;6.94;46.92;94222.78;5064117;28;20432;-75
2022/03/04 07:54:23;;;;;;;58.47;41.63;;;;;;;6.95;46.88;94225.22;5061144;28;20182;-75
2022/03/04 07:56:48;;;;;;;63.90;40.20;;;;;;;6.89;46.84;94225.94;5050708;28;20175;-74
2022/03/04 07:59:14;;;;;;;52.13;35.53;;;;;;;7.39;45.86;94221.69;5055428;28;20169;-75
2022/03/04 08:01:39;;;;;;;53.43;40.13;;;;;;;7.87;44.68;94218.50;5064757;28;20194;-75
2022/03/04 08:04:06;;;;;;;46.30;34.23;;;;;;;8.10;43.40;94215.69;5061847;28;20191;-75
2022/03/04 08:06:31;;;;;;;43.00;31.83;;;;;;;7.71;43.15;94218.78;5053680;28;20185;-74
2022/03/04 08:08:57;;;;;;;41.73;26.50;;;;;;;7.67;43.37;94217.53;5059343;28;20409;-75
2022/03/04 08:11:22;;;;;;;39.83;29.50;;;;;;;7.75;42.73;94215.59;5061662;28;20301;-75
2022/03/04 08:13:48;;;;;;;47.13;31.07;;;;;;;7.86;43.86;94216.91;5061962;28;20197;-74
2022/03/04 08:16:13;;;;;;;50.13;33.53;;;;;;;8.04;42.80;94219.03;5060157;28;20247;-75
2022/03/04 08:18:39;;;;;;;41.93;32.60;;;;;;;8.28;42.42;94223.03;5062112;28;20166;-75
2022/03/04 08:21:04;;;;;;;45.77;33.13;;;;;;;7.86;42.92;94222.09;5057072;28;20709;-74
2022/03/04 08:23:30;;;;;;;35.50;27.43;;;;;;;7.78;42.19;94227.47;5052420;28;20265;-75
2022/03/04 08:25:57;;;;;;;36.00;25.40;;;;;;;7.54;42.91;94223.44;5052199;28;20176;-74
2022/03/04 08:28:23;;;;;;;32.77;23.10;;;;;;;7.94;40.98;94227.19;5058325;28;20179;-75
2022/03/04 08:30:48;;;;;;;31.93;23.83;;;;;;;7.78;41.83;94223.06;5064265;28;20425;-76
2022/03/04 08:33:14;;;;;;;27.97;23.50;;;;;;;8.11;41.43;94229.53;5055392;28;20504;-76
2022/03/04 08:35:39;;;;;;;34.80;24.60;;;;;;;7.89;42.11;94232.16;5050665;28;20630;-77
2022/03/04 08:38:05;;;;;;;38.13;26.53;;;;;;;7.84;42.18;94229.31;5056114;28;20193;-77
2022/03/04 08:40:30;;;;;;;30.77;24.97;;;;;;;7.78;41.87;94230.06;5056273;28;20196;-74
2022/03/04 08:42:56;;;;;;;38.20;27.03;;;;;;;7.18;42.58;94237.28;5056783;28;20194;-75
2022/03/04 08:45:22;;;;;;;36.40;26.43;;;;;;;7.93;41.31;94236.00;5057777;28;20180;-74
2022/03/04 08:47:47;;;;;;;36.03;27.07;;;;;;;7.08;43.08;94229.75;5052439;28;20182;-75
2022/03/04 08:50:15;;;;;;;38.07;26.90;;;;;;;7.76;42.00;94232.06;5056710;28;20189;-74
2022/03/04 08:52:41;;;;;;;49.40;27.47;;;;;;;7.86;42.41;94237.75;5056452;28;20247;-75
2022/03/04 08:55:13;;;;;;;50.37;31.40;;;;;;;8.33;41.58;94238.91;5052672;28;20430;-74
2022/03/04 08:57:44;;;;;;;44.47;29.93;;;;;;;8.62;41.36;94237.09;5055398;28;20271;-74
2022/03/04 09:00:10;;;;;;;43.33;30.33;;;;;;;8.35;41.22;94231.69;5055437;28;20408;-74
2022/03/04 09:02:35;;;;;;;42.73;31.33;;;;;;;9.01;40.75;94234.88;5059437;28;20868;-74
2022/03/04 09:05:01;;;;;;;45.23;30.23;;;;;;;9.02;41.06;94237.28;5053193;28;20444;-74
2022/03/04 09:07:26;;;;;;;40.97;32.40;;;;;;;9.16;41.10;94231.13;5059025;28;20646;-74
2022/03/04 09:09:52;;;;;;;42.47;30.43;;;;;;;9.82;38.69;94221.81;5058301;28;20171;-74
2022/03/04 09:12:18;;;;;;;36.37;30.93;;;;;;;8.82;39.53;94223.34;5060902;28;20210;-75
2022/03/04 09:14:46;;;;;;;42.33;30.63;;;;;;;9.11;40.35;94225.69;5056319;28;20209;-75
2022/03/04 09:17:11;;;;;;;40.07;30.20;;;;;;;9.66;38.65;94225.63;5064179;28;20437;-75
2022/03/04 09:19:37;;;;;;;36.87;29.57;;;;;;;9.66;38.21;94230.84;5054229;28;20472;-75
2022/03/04 09:22:03;;;;;;;25.43;16.77;;;;;;;9.84;37.54;94226.84;5048728;28;20202;-74
2022/03/04 09:24:29;;;;;;;14.67;11.60;;;;;;;8.08;39.88;94224.69;5050896;28;20653;-74
2022/03/04 09:26:54;;;;;;;27.87;19.27;;;;;;;8.08;40.88;94227.28;5061905;28;20201;-74
2022/03/04 09:29:20;;;;;;;32.40;24.80;;;;;;;8.64;40.34;94235.09;5048600;28;20264;-74
2022/03/04 09:31:45;;;;;;;31.50;23.40;;;;;;;9.27;38.66;94228.94;5052698;28;20433;-74
2022/03/04 09:34:11;;;;;;;28.33;21.87;;;;;;;8.61;39.00;94235.47;5057589;28;20193;-74
2022/03/04 09:36:37;;;;;;;37.07;24.80;;;;;;;9.08;38.46;94235.72;5057545;28;20175;-74
2022/03/04 09:39:03;;;;;;;29.03;22.67;;;;;;;9.30;37.79;94229.38;5055462;28;20433;-74
2022/03/04 09:41:30;;;;;;;37.30;24.73;;;;;;;9.65;37.57;94228.44;5058692;28;20205;-74
2022/03/04 09:43:56;;;;;;;33.30;22.70;;;;;;;9.44;37.86;94224.97;5053076;28;20418;-74
2022/03/04 09:46:23;;;;;;;28.10;19.57;;;;;;;8.74;39.25;94227.72;5060299;28;20433;-74
2022/03/04 09:48:50;;;;;;;26.77;21.60;;;;;;;9.01;38.64;94230.47;5062108;28;20421;-74
2022/03/04 09:51:16;;;;;;;31.00;23.47;;;;;;;9.65;37.28;94225.81;5057827;28;20451;-74
2022/03/04 09:53:43;;;;;;;29.07;22.20;;;;;;;10.55;35.89;94223.63;5052662;28;20425;-74
2022/03/04 09:56:09;;;;;;;35.47;23.47;;;;;;;9.28;37.86;94226.16;5055209;28;20198;-74
2022/03/04 09:58:34;;;;;;;29.27;24.47;;;;;;;9.71;37.47;94227.63;5049653;28;20417;-74
2022/03/04 10:00:59;;;;;;;30.03;25.67;;;;;;;10.93;36.23;94220.31;5060913;28;20183;-75
2022/03/04 10:03:31;;;;;;;32.73;23.20;;;;;;;10.38;36.51;94215.41;5055871;28;20206;-74
2022/03/04 10:06:04;;;;;;;37.97;26.67;;;;;;;10.28;37.47;94221.03;5060091;28;20178;-75
2022/03/04 10:08:37;;;;;;;40.50;26.60;;;;;;;11.76;35.17;94211.63;5061208;28;20452;-74
2022/03/04 10:11:03;;;;;;;33.00;25.53;;;;;;;11.55;34.65;94211.94;5058566;28;20813;-74
2022/03/04 10:13:47;;;;;;;31.60;24.20;;;;;;;12.04;34.11;94207.81;5053633;28;20453;-75
2022/03/04 10:16:35;;;;;;;35.57;27.53;;;;;;;12.03;33.81;94207.03;5055846;28;20430;-74
2022/03/04 10:19:18;;;;;;;32.60;26.43;;;;;;;12.23;33.70;94198.97;5056887;28;20446;-74
2022/03/04 10:21:53;;;;;;;40.83;26.33;;;;;;;12.29;33.15;94199.94;5055197;28;20491;-74
2022/03/04 10:24:23;;;;;;;45.43;28.67;;;;;;;12.76;33.43;94196.84;5042732;28;20483;-74
2022/03/04 10:27:02;;;;;;;34.27;28.90;;;;;;;12.47;33.21;94196.53;5088415;28;20494;-74
2022/03/04 10:29:29;;;;;;;35.50;27.20;;;;;;;12.14;34.45;94192.41;5057910;28;20424;-74
2022/03/04 10:32:15;;;;;;;33.93;27.40;;;;;;;12.83;33.07;94189.72;5065287;28;20435;-74
2022/03/04 10:34:53;;;;;;;30.57;25.43;;;;;;;12.62;31.92;94191.75;5033923;28;20465;-74
2022/03/04 10:37:37;;;;;;;42.47;26.87;;;;;;;12.46;33.08;94187.06;5046457;28;20916;-74
2022/03/04 10:40:27;;;;;;;32.23;27.10;;;;;;;11.89;33.73;94180.09;5067551;28;20749;-75
2022/03/04 10:42:59;;;;;;;32.90;25.30;;;;;;;13.03;32.53;94177.16;5051942;28;20455;-74
2022/03/04 10:45:32;;;;;;;34.40;25.40;;;;;;;13.29;31.47;94172.56;5060832;28;20445;-74
2022/03/04 10:47:59;;;;;;;32.50;26.67;;;;;;;12.28;32.94;94169.47;5066805;28;20421;-74
2022/03/04 10:50:33;;;;;;;31.40;25.90;;;;;;;12.43;32.83;94163.91;5059402;28;20436;-74
2022/03/04 10:53:04;;;;;;;36.80;25.20;;;;;;;11.86;32.67;94153.47;5053747;28;20416;-74
2022/03/04 10:55:42;;;;;;;31.37;27.63;;;;;;;12.43;32.72;94163.91;5062066;28;20437;-74
2022/03/04 10:58:17;;;;;;;33.17;23.67;;;;;;;12.21;33.28;94155.63;5066982;28;20506;-74
2022/03/04 11:00:56;;;;;;;29.07;24.07;;;;;;;12.77;32.63;94153.84;5058622;28;20439;-73
2022/03/04 11:03:25;;;;;;;31.17;23.67;;;;;;;12.88;32.59;94145.19;5054242;28;20456;-74
2022/03/04 11:05:54;;;;;;;25.83;20.47;;;;;;;12.23;32.81;94148.34;5065329;28;20439;-74
2022/03/04 11:08:22;;;;;;;27.60;21.43;;;;;;;12.08;32.87;94144.25;5065661;28;20425;-74
2022/03/04 11:10:49;;;;;;;27.90;20.13;;;;;;;12.63;32.13;94138.22;5062823;28;20979;-75
2022/03/04 11:13:15;;;;;;;24.63;22.00;;;;;;;12.56;32.23;94137.50;5052352;28;20429;-75
2022/03/04 11:15:41;;;;;;;24.30;20.53;;;;;;;12.99;32.09;94135.78;5052176;28;20456;-75
2022/03/04 11:18:10;;;;;;;24.73;19.90;;;;;;;13.31;31.30;94128.50;5066935;28;20182;-74
2022/03/04 11:20:37;;;;;;;26.73;21.80;;;;;;;13.33;31.20;94120.41;5057172;28;20956;-75
2022/03/04 11:23:03;;;;;;;21.27;16.80;;;;;;;13.15;31.59;94123.88;5049067;28;20492;-75
2022/03/04 11:25:41;;;;;;;20.40;14.90;;;;;;;12.85;31.48;94120.19;5065524;28;20409;-74